Time;durP1;ratioP1;P1;durP2;ratioP2;P2;SDS_P1;SDS_P2;PMS_P1;PMS_P2;Temp;Humidity;BMP_temperature;BMP_pressure;BME280_temperature;BME280_humidity;BME280_pressure;Samples;Min_cycle;Max_cycle;Signal;HPM_P1;HPM_P2
2022/01/17 00:00:32;;;;;;;48.47;24.15;;;;;;;4.68;93.70;103009.28;5125181;27;20039;-86
2022/01/17 00:03:01;;;;;;;48.47;23.98;;;;;;;4.71;93.61;103022.25;5119419;27;20031;-87
2022/01/17 00:05:28;;;;;;;48.85;23.38;;;;;;;4.70;93.50;103026.56;5114017;27;20028;-87
2022/01/17 00:07:54;;;;;;;51.22;24.38;;;;;;;4.70;93.21;103025.66;5117017;27;20027;-87
2022/01/17 00:10:19;;;;;;;50.97;24.35;;;;;;;4.70;93.24;103030.81;5119133;27;20528;-87
2022/01/17 00:12:47;;;;;;;52.65;23.98;;;;;;;4.70;93.56;103031.72;5118127;27;20027;-87
2022/01/17 00:15:25;;;;;;;46.58;23.33;;;;;;;4.70;93.31;103026.56;5117151;27;20053;-86
2022/01/17 00:18:07;;;;;;;45.30;21.17;;;;;;;4.71;93.57;103035.16;5103968;27;20019;-86
2022/01/17 00:20:32;;;;;;;42.05;21.20;;;;;;;4.75;93.12;103031.00;5102939;27;21425;-86
2022/01/17 00:22:57;;;;;;;43.17;21.65;;;;;;;4.74;93.47;103037.84;5116316;27;20055;-87
2022/01/17 00:25:23;;;;;;;46.42;22.42;;;;;;;4.74;93.38;103039.56;5126365;27;20027;-87
2022/01/17 00:27:48;;;;;;;45.72;21.95;;;;;;;4.71;93.66;103023.16;5115748;27;20039;-87
2022/01/17 00:30:14;;;;;;;44.58;21.42;;;;;;;4.73;93.54;103023.19;5113286;27;20019;-87
2022/01/17 00:32:39;;;;;;;42.80;20.55;;;;;;;4.72;93.24;103013.69;5119760;27;20038;-87
2022/01/17 00:35:05;;;;;;;43.05;20.33;;;;;;;4.72;93.08;103013.69;5111721;27;20030;-87
2022/01/17 00:37:30;;;;;;;40.75;20.33;;;;;;;4.73;93.48;103020.63;5098479;28;20520;-87
2022/01/17 00:39:55;;;;;;;42.80;19.80;;;;;;;4.72;93.63;103021.44;5112700;27;20122;-87
2022/01/17 00:42:21;;;;;;;42.28;19.83;;;;;;;4.74;93.27;103018.94;5117432;27;20036;-87
2022/01/17 00:44:48;;;;;;;41.90;20.52;;;;;;;4.73;93.23;103030.06;5113756;27;20024;-86
2022/01/17 00:47:13;;;;;;;41.92;20.52;;;;;;;4.72;93.30;103029.16;5114094;27;20059;-87
2022/01/17 00:49:38;;;;;;;41.20;19.20;;;;;;;4.73;93.16;103022.31;5116289;27;20063;-87
2022/01/17 00:52:04;;;;;;;39.83;19.35;;;;;;;4.73;93.35;103024.91;5120059;27;20065;-87
2022/01/17 00:54:31;;;;;;;40.22;19.83;;;;;;;4.74;93.24;103031.81;5119822;27;20023;-87
2022/01/17 00:56:57;;;;;;;42.72;19.27;;;;;;;4.74;93.00;103031.81;5119588;27;20058;-86
2022/01/17 00:59:22;;;;;;;38.33;19.55;;;;;;;4.74;93.23;103026.66;5105952;27;20383;-87
2022/01/17 01:01:47;;;;;;;40.75;19.92;;;;;;;4.74;93.43;103027.53;5117134;27;20031;-86
2022/01/17 01:04:12;;;;;;;40.47;19.23;;;;;;;4.75;93.27;103025.84;5117138;27;20035;-87
2022/01/17 01:06:38;;;;;;;40.15;18.75;;;;;;;4.74;93.38;103037.84;5115382;27;20027;-87
2022/01/17 01:09:04;;;;;;;35.22;18.70;;;;;;;4.74;93.27;103037.84;5112245;27;20032;-86
2022/01/17 01:11:29;;;;;;;40.22;18.63;;;;;;;4.75;93.06;103041.31;5113575;27;20035;-87
2022/01/17 01:13:55;;;;;;;41.10;19.08;;;;;;;4.76;93.38;103049.09;5116467;27;20583;-87
2022/01/17 01:29:27;;;;;;;33.17;16.35;;;;;;;4.75;93.03;103046.47;5113458;27;20058;-86
2022/01/17 01:31:58;;;;;;;31.58;15.23;;;;;;;4.74;92.65;103037.84;5092990;28;20020;-87
2022/01/17 01:34:33;;;;;;;34.30;15.53;;;;;;;4.75;92.63;103038.72;5113525;28;20133;-87
2022/01/17 01:36:58;;;;;;;31.70;14.77;;;;;;;4.75;92.49;103043.88;5112316;28;20024;-87
2022/01/17 01:39:24;;;;;;;31.77;14.73;;;;;;;4.75;92.33;103044.75;5113451;28;20023;-87
2022/01/17 01:41:51;;;;;;;29.67;14.55;;;;;;;4.74;92.62;103048.16;5111377;28;20023;-86
2022/01/17 01:44:19;;;;;;;34.13;14.32;;;;;;;4.76;92.35;103056.81;5112688;28;20019;-87
2022/01/17 01:46:45;;;;;;;31.63;14.95;;;;;;;4.77;92.34;103062.88;5095231;28;20485;-87
2022/01/17 01:49:12;;;;;;;29.13;13.80;;;;;;;4.76;92.26;103061.97;5113150;28;20520;-86
2022/01/17 01:51:38;;;;;;;32.25;13.73;;;;;;;4.78;92.06;103059.47;5110862;28;20040;-86
2022/01/17 01:54:04;;;;;;;31.00;13.85;;;;;;;4.78;91.96;103049.16;5111516;28;20039;-86
2022/01/17 01:56:30;;;;;;;24.70;12.40;;;;;;;4.79;91.92;103040.56;5112414;28;21968;-86
2022/01/17 01:58:56;;;;;;;24.08;12.35;;;;;;;4.79;91.73;103040.56;5093577;28;20057;-86
2022/01/17 02:01:21;;;;;;;34.05;12.82;;;;;;;4.78;91.68;103051.75;5121868;27;20050;-87
2022/01/17 02:03:46;;;;;;;27.25;12.25;;;;;;;4.77;92.27;103047.41;5111619;28;20038;-87
2022/01/17 02:06:12;;;;;;;31.88;13.43;;;;;;;4.78;91.96;103054.31;5114188;28;20030;-87
2022/01/17 02:08:40;;;;;;;28.85;13.48;;;;;;;4.74;92.49;103052.44;5111699;28;20454;-87
2022/01/17 02:11:10;;;;;;;24.85;12.93;;;;;;;4.69;92.09;103060.91;5122935;27;20027;-87
2022/01/17 02:13:37;;;;;;;26.63;11.23;;;;;;;4.65;92.02;103056.44;5099156;28;20031;-87
2022/01/17 02:16:13;;;;;;;30.90;12.35;;;;;;;4.60;91.64;103068.31;5116503;27;20494;-87
2022/01/17 02:18:42;;;;;;;26.45;11.80;;;;;;;4.54;91.94;103066.38;5103396;28;20039;-87
2022/01/17 02:23:49;;;;;;;27.73;11.02;;;;;;;4.45;91.58;103057.44;5121090;27;20077;-87
2022/01/17 02:26:16;;;;;;;23.15;9.65;;;;;;;4.40;91.26;103055.59;5123306;27;20040;-87
2022/01/17 02:28:51;;;;;;;23.27;10.93;;;;;;;4.36;91.28;103050.25;5097354;27;20043;-87
2022/01/17 02:31:21;;;;;;;22.65;10.75;;;;;;;4.32;91.25;103046.69;5116612;27;20097;-86
2022/01/17 02:33:49;;;;;;;22.77;10.50;;;;;;;4.31;91.65;103052.69;5115507;27;20060;-86
2022/01/17 02:36:14;;;;;;;23.88;10.55;;;;;;;4.28;91.22;103059.44;5124958;27;20031;-87
2022/01/17 02:38:41;;;;;;;22.42;10.82;;;;;;;4.23;91.56;103067.00;5123159;27;20459;-86
2022/01/17 02:41:12;;;;;;;21.75;10.25;;;;;;;4.18;91.11;103055.63;5116478;27;20034;-87
2022/01/17 02:43:42;;;;;;;26.70;10.95;;;;;;;4.16;91.53;103055.59;5141619;27;20023;-86
2022/01/17 02:48:38;;;;;;;22.83;11.40;;;;;;;4.10;91.41;103051.06;5119655;27;20043;-87
2022/01/17 02:51:04;;;;;;;27.42;10.93;;;;;;;4.08;91.63;103055.31;5118038;27;20561;-86
2022/01/17 02:53:30;;;;;;;27.15;10.52;;;;;;;4.05;91.46;103059.44;5121835;27;20094;-86
2022/01/17 02:55:58;;;;;;;23.80;10.65;;;;;;;4.01;91.70;103063.63;5099764;28;20026;-87
2022/01/17 02:58:26;;;;;;;24.90;11.43;;;;;;;4.00;91.65;103074.75;5116946;27;20047;-87
2022/01/17 03:00:53;;;;;;;23.23;10.75;;;;;;;3.98;91.82;103062.63;5119728;27;20386;-87
2022/01/17 03:03:21;;;;;;;23.83;10.05;;;;;;;3.94;91.29;103062.50;5114513;27;20019;-87
2022/01/17 03:05:48;;;;;;;28.20;10.57;;;;;;;3.93;91.64;103055.59;5100991;28;20106;-87
2022/01/17 03:08:15;;;;;;;25.15;10.50;;;;;;;3.90;91.40;103055.47;5121926;27;20024;-87
2022/01/17 03:10:43;;;;;;;23.20;9.85;;;;;;;3.89;91.24;103052.88;5123473;27;20171;-87
2022/01/17 03:13:14;;;;;;;20.63;9.37;;;;;;;3.90;91.63;103058.06;5120889;27;20031;-87
2022/01/17 03:15:40;;;;;;;24.95;9.38;;;;;;;3.89;91.40;103053.72;5127867;27;20516;-87
2022/01/17 03:18:06;;;;;;;20.45;8.77;;;;;;;3.88;91.10;103048.53;5119093;27;20346;-87
2022/01/17 03:20:34;;;;;;;19.70;8.98;;;;;;;3.86;90.71;103042.44;5121405;27;20474;-87
2022/01/17 03:23:00;;;;;;;18.55;8.10;;;;;;;3.84;90.61;103046.66;5100720;27;20032;-87
2022/01/17 03:25:26;;;;;;;18.75;8.75;;;;;;;3.84;90.89;103047.53;5116839;27;20050;-87
2022/01/17 03:27:51;;;;;;;18.08;8.52;;;;;;;3.80;90.49;103058.53;5121505;27;20486;-87
2022/01/17 03:30:16;;;;;;;17.85;8.18;;;;;;;3.78;90.58;103065.31;5098706;27;20019;-87
2022/01/17 03:32:41;;;;;;;24.30;8.32;;;;;;;3.75;90.79;103060.06;5104658;27;20027;-87
2022/01/17 03:35:07;;;;;;;18.67;8.57;;;;;;;3.74;90.84;103066.00;5104493;27;20023;-87
2022/01/17 03:37:33;;;;;;;16.25;7.85;;;;;;;3.72;90.91;103062.50;5116647;27;20031;-87
2022/01/17 03:39:58;;;;;;;20.10;8.48;;;;;;;3.71;91.00;103066.78;5116684;27;20023;-87
2022/01/17 03:42:24;;;;;;;20.10;8.75;;;;;;;3.71;90.56;103061.63;5118372;27;20037;-87
2022/01/17 03:44:50;;;;;;;21.77;8.57;;;;;;;3.72;90.59;103065.97;5115386;27;20034;-87
2022/01/17 03:47:15;;;;;;;18.00;8.10;;;;;;;3.71;90.60;103064.22;5112889;27;20055;-87
2022/01/17 03:49:41;;;;;;;23.35;8.93;;;;;;;3.69;90.51;103060.69;5118517;27;20084;-87
2022/01/17 03:52:06;;;;;;;21.20;8.20;;;;;;;3.68;90.78;103061.50;5115782;27;20027;-87
2022/01/17 03:54:32;;;;;;;16.10;7.80;;;;;;;3.63;90.91;103050.16;5116595;27;20379;-87
2022/01/17 03:56:58;;;;;;;16.45;7.68;;;;;;;3.61;90.74;103052.69;5114461;27;20019;-87
2022/01/17 03:59:24;;;;;;;17.92;8.05;;;;;;;3.59;91.01;103053.41;5116103;27;20034;-87
2022/01/17 04:01:49;;;;;;;20.83;7.93;;;;;;;3.56;90.83;103053.31;5114474;27;20027;-87
2022/01/17 04:04:14;;;;;;;16.03;7.87;;;;;;;3.54;90.80;103066.13;5114584;27;20035;-87
2022/01/17 04:06:40;;;;;;;17.90;7.82;;;;;;;3.49;90.77;103063.38;5113678;27;20043;-87
2022/01/17 04:09:05;;;;;;;17.70;7.87;;;;;;;3.47;91.10;103065.00;5114948;27;20028;-87
2022/01/17 04:11:30;;;;;;;17.73;7.80;;;;;;;3.45;91.11;103074.34;5113352;27;20028;-87
2022/01/17 04:13:56;;;;;;;14.70;7.40;;;;;;;3.44;90.82;103070.00;5118765;27;20110;-87
2022/01/17 04:16:21;;;;;;;17.73;7.20;;;;;;;3.44;90.71;103075.16;5114266;27;21623;-87
2022/01/17 04:18:46;;;;;;;23.97;8.03;;;;;;;3.45;91.10;103068.34;5114328;27;20059;-86
2022/01/17 04:21:11;;;;;;;20.45;7.82;;;;;;;3.45;90.73;103070.91;5113522;27;20105;-87
2022/01/17 04:23:37;;;;;;;16.77;7.03;;;;;;;3.44;90.68;103077.72;5094920;27;20498;-87
2022/01/17 04:26:02;;;;;;;15.50;6.67;;;;;;;3.42;90.93;103081.94;5113400;27;20027;-87
2022/01/17 04:28:27;;;;;;;15.20;6.70;;;;;;;3.40;90.93;103077.56;5095481;27;20164;-87
2022/01/17 04:30:53;;;;;;;17.47;6.90;;;;;;;3.38;90.56;103085.22;5112342;27;20027;-87
2022/01/17 04:33:18;;;;;;;17.07;6.67;;;;;;;3.36;90.74;103075.66;5095873;27;20100;-87
2022/01/17 04:35:44;;;;;;;14.97;6.07;;;;;;;3.34;90.95;103070.47;5119729;27;20116;-87
2022/01/17 04:38:13;;;;;;;12.23;6.10;;;;;;;3.31;90.78;103068.66;5124362;27;20475;-86
2022/01/17 04:40:40;;;;;;;13.23;5.87;;;;;;;3.29;91.02;103065.16;5121141;27;20034;-86
2022/01/17 04:43:32;;;;;;;14.17;5.77;;;;;;;3.26;90.51;103072.72;5095645;28;20026;-87
2022/01/17 04:45:58;;;;;;;13.50;5.47;;;;;;;3.27;90.91;103077.06;5113795;27;20024;-87
2022/01/17 04:48:24;;;;;;;15.57;5.90;;;;;;;3.24;90.64;103058.94;5115525;27;20042;-87
2022/01/17 04:50:49;;;;;;;14.57;5.20;;;;;;;3.23;90.42;103066.59;5114393;28;20035;-87
2022/01/17 04:53:17;;;;;;;10.20;4.87;;;;;;;3.21;90.68;103079.38;5111518;27;20032;-87
2022/01/17 04:55:43;;;;;;;16.03;5.20;;;;;;;3.21;90.58;103083.66;5093291;27;20036;-87
2022/01/17 04:58:09;;;;;;;10.90;4.40;;;;;;;3.20;90.79;103093.06;5112248;27;20385;-87
2022/01/17 05:00:34;;;;;;;12.40;4.70;;;;;;;3.22;90.63;103103.41;5113304;27;20024;-87
2022/01/17 05:02:59;;;;;;;14.27;5.20;;;;;;;3.23;90.72;103097.47;5111682;27;20073;-88
2022/01/17 05:05:24;;;;;;;11.90;4.73;;;;;;;3.25;90.65;103103.53;5113079;27;20038;-87
2022/01/17 05:07:50;;;;;;;12.03;4.70;;;;;;;3.25;90.42;103100.94;5094952;28;20030;-87
2022/01/17 05:10:17;;;;;;;15.00;4.80;;;;;;;3.27;90.59;103113.09;5113275;27;20181;-87
2022/01/17 05:12:44;;;;;;;11.27;4.50;;;;;;;3.30;90.31;103120.03;5094460;28;20039;-88
2022/01/17 05:18:00;;;;;;;13.57;4.43;;;;;;;3.36;90.86;103119.41;5117584;27;20482;-87
2022/01/17 05:20:25;;;;;;;13.23;4.38;;;;;;;3.38;90.51;103110.94;5112573;27;20027;-87
2022/01/17 05:22:51;;;;;;;12.07;4.70;;;;;;;3.39;90.82;103111.81;5111161;27;20530;-88
2022/01/17 05:25:16;;;;;;;11.27;4.00;;;;;;;3.42;90.31;103105.09;5111505;28;20107;-87
2022/01/17 05:27:41;;;;;;;13.27;4.40;;;;;;;3.43;90.31;103109.44;5095113;28;20077;-87
2022/01/17 05:30:11;;;;;;;15.57;4.32;;;;;;;3.46;90.58;103116.41;5113489;27;20388;-87
2022/01/17 05:32:37;;;;;;;12.80;4.17;;;;;;;3.47;90.17;103113.88;5111972;28;20027;-87
2022/01/17 05:35:03;;;;;;;15.07;4.40;;;;;;;3.48;90.55;103105.34;5097653;28;20024;-87
2022/01/17 05:37:28;;;;;;;15.50;4.37;;;;;;;3.46;90.90;103112.13;5120164;27;20436;-87
2022/01/17 05:39:53;;;;;;;14.33;4.30;;;;;;;3.44;90.17;103113.75;5114282;28;20038;-87
2022/01/17 05:42:20;;;;;;;10.25;4.50;;;;;;;3.42;90.44;103123.09;5113081;28;20024;-85
2022/01/17 05:44:46;;;;;;;9.43;4.33;;;;;;;3.41;90.16;103128.19;5116550;27;20035;-87
2022/01/17 05:47:12;;;;;;;11.27;4.40;;;;;;;3.37;89.99;103116.91;5116023;27;20032;-87
2022/01/17 05:49:38;;;;;;;11.43;4.03;;;;;;;3.34;90.29;103114.22;5102496;28;20034;-87
2022/01/17 05:52:04;;;;;;;13.47;4.90;;;;;;;3.32;90.07;103120.97;5118621;27;20031;-87
2022/01/17 05:54:30;;;;;;;18.55;4.32;;;;;;;3.30;90.11;103104.59;5116209;27;20027;-87
2022/01/17 05:56:55;;;;;;;12.60;4.80;;;;;;;3.29;90.27;103102.84;5115147;27;20072;-87
2022/01/17 05:59:20;;;;;;;13.50;5.10;;;;;;;3.26;90.51;103110.44;5115553;28;20085;-87
2022/01/17 06:01:45;;;;;;;14.47;5.03;;;;;;;3.24;90.31;103117.22;5115295;27;20496;-87
2022/01/17 06:04:11;;;;;;;12.80;4.63;;;;;;;3.23;89.82;103126.63;5116041;27;20032;-87
2022/01/17 06:06:36;;;;;;;17.93;5.00;;;;;;;3.23;90.64;103121.47;5115818;27;20390;-86
2022/01/17 06:09:02;;;;;;;18.20;5.20;;;;;;;3.23;90.36;103112.91;5114974;27;20157;-87
2022/01/17 06:11:27;;;;;;;22.43;5.57;;;;;;;3.21;90.08;103114.53;5097441;27;20042;-86
2022/01/17 06:13:53;;;;;;;27.90;5.73;;;;;;;3.17;90.56;103124.69;5129338;27;20027;-87
2022/01/17 06:16:18;;;;;;;10.87;4.77;;;;;;;3.15;90.26;103134.03;5120198;27;20467;-87
2022/01/17 06:18:43;;;;;;;16.23;5.27;;;;;;;3.13;90.38;103138.22;5115533;27;20181;-87
2022/01/17 06:21:09;;;;;;;17.97;5.53;;;;;;;3.11;90.45;103126.97;5116529;27;20015;-88
2022/01/17 06:23:34;;;;;;;19.07;5.13;;;;;;;3.08;90.50;103126.84;5098199;27;20069;-87
2022/01/17 06:25:59;;;;;;;18.03;5.47;;;;;;;3.06;90.33;103120.78;5115390;27;20027;-87
2022/01/17 06:28:26;;;;;;;13.33;5.83;;;;;;;3.04;90.20;103117.25;5115099;27;20019;-87
2022/01/17 06:30:52;;;;;;;17.07;5.67;;;;;;;3.03;90.33;103138.66;5097372;28;20378;-87
2022/01/17 06:33:17;;;;;;;18.07;5.93;;;;;;;2.99;90.73;103142.75;5117859;27;20493;-87
2022/01/17 06:35:42;;;;;;;15.57;5.50;;;;;;;2.99;90.66;103141.91;5113893;28;20410;-87
2022/01/17 06:38:08;;;;;;;19.13;6.03;;;;;;;2.98;90.97;103145.28;5115165;27;20050;-86
2022/01/17 06:40:33;;;;;;;18.37;5.70;;;;;;;2.97;90.82;103133.22;5113594;27;20470;-87
2022/01/17 06:42:59;;;;;;;22.40;6.07;;;;;;;2.97;90.63;103140.94;5115304;27;20027;-87
2022/01/17 06:45:24;;;;;;;15.90;6.73;;;;;;;2.96;91.17;103147.81;5112422;28;20053;-86
2022/01/17 06:47:50;;;;;;;18.47;6.83;;;;;;;2.94;90.80;103138.25;5115523;27;20035;-87
2022/01/17 06:50:15;;;;;;;25.30;7.03;;;;;;;2.94;90.82;103140.81;5113987;27;20454;-87
2022/01/17 06:52:41;;;;;;;20.47;7.37;;;;;;;2.96;91.32;103149.47;5113204;27;20543;-86
2022/01/17 06:55:07;;;;;;;15.13;7.63;;;;;;;2.97;91.18;103151.22;5113476;28;20103;-87
2022/01/17 06:57:33;;;;;;;16.47;7.73;;;;;;;2.97;90.99;103164.09;5114651;27;20089;-87
2022/01/17 06:59:58;;;;;;;21.77;8.77;;;;;;;3.01;90.99;103176.28;5114838;27;20483;-86
2022/01/17 07:02:23;;;;;;;22.70;8.57;;;;;;;3.03;91.42;103182.38;5112965;27;20025;-86
2022/01/17 07:04:49;;;;;;;17.47;8.20;;;;;;;3.07;91.36;103180.81;5116464;27;20023;-86
2022/01/17 07:07:14;;;;;;;23.00;8.73;;;;;;;3.05;91.41;103178.19;5114563;27;20028;-86
2022/01/17 07:09:39;;;;;;;18.37;8.47;;;;;;;3.05;91.16;103193.59;5096981;28;20027;-87
2022/01/17 07:12:05;;;;;;;25.20;9.03;;;;;;;3.06;91.43;103190.22;5113296;27;20050;-87
2022/01/17 07:14:31;;;;;;;26.97;9.07;;;;;;;3.04;91.25;103171.28;5115534;27;20015;-87
2022/01/17 07:16:58;;;;;;;21.43;9.23;;;;;;;3.02;91.18;103162.59;5121652;27;20106;-86
2022/01/17 07:19:24;;;;;;;24.83;9.17;;;;;;;3.01;91.30;103151.44;5115585;27;20031;-86
2022/01/17 07:21:50;;;;;;;24.43;9.17;;;;;;;2.99;91.47;103147.03;5120229;27;20030;-86
2022/01/17 07:24:16;;;;;;;23.00;9.63;;;;;;;2.98;91.65;103143.59;5113169;27;20505;-86
2022/01/17 07:26:41;;;;;;;22.67;10.13;;;;;;;2.98;91.80;103146.19;5083331;28;20067;-87
2022/01/17 07:29:08;;;;;;;25.40;9.70;;;;;;;2.97;91.50;103148.66;5064896;28;20558;-86
2022/01/17 07:31:37;;;;;;;24.20;9.27;;;;;;;2.96;91.80;103170.94;5065147;28;20089;-86
2022/01/17 07:34:04;;;;;;;24.33;10.33;;;;;;;2.94;91.66;103169.09;5067194;28;20119;-86
2022/01/17 07:36:30;;;;;;;22.30;10.27;;;;;;;2.95;91.38;103171.75;5067452;28;20036;-86
2022/01/17 07:38:56;;;;;;;27.50;10.97;;;;;;;2.96;91.71;103185.47;5067321;28;20025;-85
2022/01/17 07:41:22;;;;;;;25.07;10.57;;;;;;;2.96;91.91;103182.91;5065683;28;20032;-85
2022/01/17 07:43:48;;;;;;;26.67;10.63;;;;;;;2.96;91.89;103183.78;5065930;28;20035;-85
2022/01/17 07:46:24;;;;;;;26.97;12.33;;;;;;;2.98;91.74;103189.00;5066866;28;20099;-85
2022/01/17 07:49:10;;;;;;;24.13;11.47;;;;;;;2.98;91.42;103196.72;5065874;28;20052;-86
2022/01/17 07:51:38;;;;;;;22.27;10.47;;;;;;;3.00;91.68;103197.66;5068768;28;20762;-85
2022/01/17 07:54:04;;;;;;;24.47;11.40;;;;;;;3.00;91.60;103195.09;5066807;28;20495;-85
2022/01/17 07:56:30;;;;;;;27.03;11.60;;;;;;;3.02;91.55;103203.75;5066661;28;20024;-85
2022/01/17 07:58:56;;;;;;;21.67;11.50;;;;;;;3.02;91.77;103196.91;5066525;28;20471;-85
2022/01/17 08:01:22;;;;;;;29.10;11.93;;;;;;;3.03;91.49;103208.94;5067275;28;20028;-86
2022/01/17 08:03:47;;;;;;;24.37;12.13;;;;;;;3.06;91.33;103217.63;5071257;28;20039;-86
2022/01/17 08:06:12;;;;;;;24.07;11.93;;;;;;;3.07;91.70;103217.69;5065383;28;20483;-86
2022/01/17 08:08:38;;;;;;;29.57;14.67;;;;;;;3.09;91.50;103215.19;5067318;28;20085;-86
2022/01/17 08:11:04;;;;;;;30.40;11.10;;;;;;;3.12;91.33;103213.63;5066596;28;20027;-85
2022/01/17 08:13:29;;;;;;;25.77;12.00;;;;;;;3.14;91.31;103213.69;5067258;28;20349;-85
2022/01/17 08:15:55;;;;;;;22.03;10.93;;;;;;;3.18;91.72;103208.75;5069070;28;20054;-86
2022/01/17 08:18:21;;;;;;;22.73;11.00;;;;;;;3.22;91.71;103211.47;5065061;28;20028;-86
2022/01/17 08:20:47;;;;;;;20.50;11.03;;;;;;;3.26;91.64;103218.47;5066739;28;20084;-85
2022/01/17 08:23:12;;;;;;;21.77;11.13;;;;;;;3.30;91.42;103221.28;5069073;28;20723;-86
2022/01/17 08:25:37;;;;;;;22.23;10.70;;;;;;;3.36;91.66;103224.91;5069409;28;20049;-87
2022/01/17 08:28:03;;;;;;;22.37;10.93;;;;;;;3.37;91.83;103222.41;5104531;27;20031;-85
2022/01/17 08:30:29;;;;;;;27.73;11.70;;;;;;;3.40;91.61;103232.84;5109845;27;20661;-85
2022/01/17 08:32:55;;;;;;;24.87;12.53;;;;;;;3.45;91.36;103233.88;5108472;27;20031;-85
2022/01/17 08:35:21;;;;;;;22.27;10.87;;;;;;;3.46;91.81;103232.22;5108469;27;20028;-87
2022/01/17 08:37:46;;;;;;;25.00;11.83;;;;;;;3.51;91.73;103227.25;5108738;27;20028;-87
2022/01/17 08:40:13;;;;;;;22.47;11.83;;;;;;;3.54;91.46;103223.09;5088774;27;20489;-85
2022/01/17 08:42:38;;;;;;;27.03;12.53;;;;;;;3.57;91.58;103215.53;5105730;27;20038;-85
2022/01/17 08:45:06;;;;;;;21.05;12.30;;;;;;;3.60;91.61;103201.88;5108156;27;20023;-88
2022/01/17 08:47:32;;;;;;;22.02;11.98;;;;;;;3.64;91.71;103206.34;5107703;27;20305;-87
2022/01/17 08:49:57;;;;;;;24.80;11.93;;;;;;;3.67;91.59;103229.66;5108980;27;20034;-86
2022/01/17 08:52:23;;;;;;;31.30;11.67;;;;;;;3.70;91.40;103211.78;5107616;27;20470;-87
2022/01/17 08:54:48;;;;;;;25.23;11.90;;;;;;;3.71;91.84;103213.53;5086558;28;20058;-86
2022/01/17 08:57:14;;;;;;;26.83;11.90;;;;;;;3.73;91.53;103229.03;5105212;28;20034;-85
2022/01/17 08:59:41;;;;;;;23.00;12.00;;;;;;;3.77;91.72;103228.34;5103691;28;20032;-85
2022/01/17 09:02:06;;;;;;;23.90;12.00;;;;;;;3.79;91.49;103226.72;5104674;28;20036;-86
2022/01/17 09:04:32;;;;;;;23.70;11.60;;;;;;;3.79;91.50;103222.44;5104389;28;20088;-87
2022/01/17 09:06:58;;;;;;;23.37;11.43;;;;;;;3.83;91.71;103220.00;5106640;27;20088;-88
2022/01/17 09:09:23;;;;;;;23.67;11.35;;;;;;;3.85;91.52;103226.09;5104938;28;20039;-87
2022/01/17 09:11:49;;;;;;;27.42;11.77;;;;;;;3.89;91.39;103225.41;5105813;27;20459;-87
2022/01/17 09:14:14;;;;;;;24.58;11.73;;;;;;;3.92;91.47;103225.53;5089784;27;20051;-85
2022/01/17 09:16:39;;;;;;;25.23;10.83;;;;;;;3.98;91.49;103232.63;5105516;27;20505;-85
2022/01/17 09:19:06;;;;;;;25.27;11.50;;;;;;;4.00;91.42;103247.31;5087001;27;20035;-85
2022/01/17 09:21:31;;;;;;;22.52;11.18;;;;;;;4.03;91.44;103257.75;5085928;28;20027;-86
2022/01/17 09:23:58;;;;;;;27.10;12.68;;;;;;;4.08;91.55;103263.06;5103985;28;20494;-85
2022/01/17 09:26:27;;;;;;;26.73;11.63;;;;;;;4.15;91.63;103267.66;5104553;27;20050;-86
2022/01/17 09:28:55;;;;;;;29.30;11.35;;;;;;;4.22;91.75;103266.22;5106270;28;20054;-85
2022/01/17 09:31:21;;;;;;;23.98;10.85;;;;;;;4.26;91.55;103260.38;5088209;28;20040;-86
2022/01/17 09:33:47;;;;;;;27.50;12.43;;;;;;;4.30;91.51;103267.38;5088891;28;20049;-86
2022/01/17 09:36:13;;;;;;;28.17;12.25;;;;;;;4.32;91.28;103265.75;5105514;28;20032;-86
2022/01/17 09:38:39;;;;;;;27.55;13.05;;;;;;;4.36;91.14;103259.91;5085728;28;20024;-85
2022/01/17 09:41:04;;;;;;;24.80;12.90;;;;;;;4.38;91.52;103255.69;5100398;28;20037;-87
2022/01/17 09:43:29;;;;;;;23.42;12.00;;;;;;;4.42;91.03;103259.25;5102298;28;20323;-86
2022/01/17 09:45:56;;;;;;;25.90;11.88;;;;;;;4.43;91.13;103263.59;5084463;28;20101;-85
2022/01/17 09:48:23;;;;;;;27.63;11.57;;;;;;;4.47;91.19;103285.19;5084352;28;20027;-87
2022/01/17 09:51:03;;;;;;;28.63;11.10;;;;;;;4.50;90.78;103290.47;5118390;27;20498;-85
2022/01/17 09:53:28;;;;;;;28.15;10.80;;;;;;;4.55;90.77;103294.13;5103035;28;20084;-86
2022/01/17 09:55:58;;;;;;;32.67;11.18;;;;;;;4.55;90.52;103296.72;5103334;28;20062;-85
2022/01/17 09:58:25;;;;;;;21.08;10.07;;;;;;;4.54;90.49;103290.66;5117966;27;20024;-86
2022/01/17 10:00:50;;;;;;;25.17;10.18;;;;;;;4.58;90.69;103314.88;5104786;28;20035;-87
2022/01/17 10:03:19;;;;;;;25.60;10.07;;;;;;;4.62;90.44;103318.44;5102223;28;20035;-87
2022/01/17 10:05:44;;;;;;;25.90;9.88;;;;;;;4.62;90.50;103306.44;5102841;28;20442;-86
2022/01/17 10:08:13;;;;;;;25.48;10.00;;;;;;;4.63;90.41;103318.50;5104744;28;20047;-87
2022/01/17 10:10:52;;;;;;;23.98;9.38;;;;;;;4.69;90.16;103316.16;5104992;28;20039;-88
2022/01/17 10:13:25;;;;;;;21.48;8.77;;;;;;;4.67;89.89;103296.31;5083801;28;20038;-86
2022/01/17 10:16:01;;;;;;;21.38;8.90;;;;;;;4.69;89.85;103303.28;5100687;28;20447;-86
2022/01/17 10:18:46;;;;;;;25.92;9.27;;;;;;;4.70;89.61;103305.03;5103443;28;20030;-86
2022/01/17 10:21:48;;;;;;;22.00;7.82;;;;;;;4.74;90.33;103307.75;5103680;28;20031;-86
2022/01/17 10:27:44;;;;;;;20.63;7.55;;;;;;;4.78;89.65;103322.53;5100405;28;20595;-86
2022/01/17 10:35:30;;;;;;;20.98;7.53;;;;;;;4.88;89.32;103311.72;5105857;27;20175;-88
2022/01/17 10:38:20;;;;;;;20.75;7.63;;;;;;;4.92;89.24;103328.19;5104735;27;20028;-86
2022/01/17 10:41:07;;;;;;;23.70;7.53;;;;;;;4.97;89.14;103314.63;5090957;27;20053;-88
2022/01/17 10:43:38;;;;;;;24.10;7.55;;;;;;;5.00;89.65;103327.66;5103327;27;20579;-88
2022/01/17 10:46:06;;;;;;;25.25;6.75;;;;;;;5.07;89.18;103320.16;5104482;27;20028;-87
2022/01/17 10:48:37;;;;;;;23.95;6.72;;;;;;;5.12;89.45;103329.81;5104887;27;20065;-88
2022/01/17 10:51:05;;;;;;;17.55;5.95;;;;;;;5.18;88.85;103324.00;5087989;28;20056;-86
2022/01/17 10:53:30;;;;;;;24.80;5.88;;;;;;;5.20;88.65;103317.19;5105834;27;20038;-88
2022/01/17 10:55:58;;;;;;;25.38;6.25;;;;;;;5.26;88.42;103332.94;5107127;27;20031;-87
2022/01/17 10:58:29;;;;;;;16.65;5.03;;;;;;;5.28;88.24;103335.53;5088593;27;20114;-86
2022/01/17 11:00:57;;;;;;;15.98;4.97;;;;;;;5.32;87.71;103338.28;5107630;27;20034;-87
2022/01/17 11:03:26;;;;;;;17.52;5.80;;;;;;;5.34;88.21;103346.09;5108041;27;20030;-86
2022/01/17 11:05:53;;;;;;;19.17;5.38;;;;;;;5.39;88.02;103351.44;5109894;27;20032;-88
2022/01/17 11:08:21;;;;;;;20.42;5.35;;;;;;;5.37;88.03;103345.31;5106519;27;20390;-85
2022/01/17 11:10:50;;;;;;;21.92;5.07;;;;;;;5.39;87.75;103344.56;5107499;27;20031;-87
2022/01/17 11:13:17;;;;;;;19.80;4.25;;;;;;;5.48;87.47;103356.91;5106431;27;20145;-87
2022/01/17 11:15:46;;;;;;;13.27;4.32;;;;;;;5.50;87.63;103354.41;5106938;27;20039;-86
2022/01/17 11:18:25;;;;;;;20.90;4.85;;;;;;;5.50;87.11;103355.28;5109799;27;20580;-87
2022/01/17 11:21:00;;;;;;;23.50;5.25;;;;;;;5.52;86.98;103360.50;5105181;27;20054;-86
2022/01/17 11:23:28;;;;;;;22.42;4.72;;;;;;;5.52;87.16;103353.63;5104511;28;20501;-88
2022/01/17 11:25:55;;;;;;;15.90;4.63;;;;;;;5.57;87.25;103338.28;5105164;27;20051;-86
2022/01/17 11:28:23;;;;;;;18.65;4.55;;;;;;;5.57;87.50;103341.78;5103635;27;20054;-85
2022/01/17 11:30:53;;;;;;;17.00;4.68;;;;;;;5.61;86.91;103340.16;5105278;27;20028;-86
2022/01/17 11:33:19;;;;;;;16.27;4.28;;;;;;;5.64;86.81;103324.78;5102486;27;20031;-87
2022/01/17 11:35:51;;;;;;;21.90;5.07;;;;;;;5.66;86.43;103336.06;5106389;27;20497;-86
2022/01/17 11:38:20;;;;;;;19.05;4.80;;;;;;;5.70;86.30;103332.75;5107710;27;20024;-89
2022/01/17 11:40:46;;;;;;;18.38;4.00;;;;;;;5.77;85.81;103328.69;5105192;27;20027;-85
2022/01/17 11:43:35;;;;;;;22.45;5.38;;;;;;;5.77;86.16;103341.59;5108692;27;20080;-87
2022/01/17 11:46:18;;;;;;;19.35;4.57;;;;;;;5.79;86.67;103352.88;5089533;28;20038;-89
2022/01/17 11:48:51;;;;;;;15.85;3.60;;;;;;;5.84;85.37;103343.53;5107222;27;20050;-88
2022/01/17 11:51:16;;;;;;;14.75;3.92;;;;;;;5.84;85.94;103359.06;5108668;27;20036;-86